Time;durP1;ratioP1;P1;durP2;ratioP2;P2;SDS_P1;SDS_P2;PMS_P1;PMS_P2;Temp;Humidity;BMP_temperature;BMP_pressure;BME280_temperature;BME280_humidity;BME280_pressure;Samples;Min_cycle;Max_cycle;Signal;HPM_P1;HPM_P2
2023/06/17 03:00:59;;;;;;;2.78;2.30;;;24.10;44.20;;;;;;5719022;23;45983;-65
2023/06/17 03:03:33;;;;;;;2.78;2.28;;;24.10;44.20;;;;;;4897613;28;45904;-57
2023/06/17 03:06:04;;;;;;;3.47;2.30;;;24.10;44.20;;;;;;4929138;28;45541;-63
2023/06/17 03:08:32;;;;;;;2.38;2.10;;;24.10;44.10;;;;;;4948693;28;46233;-61
2023/06/17 03:10:58;;;;;;;2.55;2.13;;;24.10;44.10;;;;;;4941878;28;45222;-60
2023/06/17 03:13:23;;;;;;;3.30;2.22;;;24.10;44.10;;;;;;4945526;28;45234;-61
2023/06/17 03:15:50;;;;;;;3.83;2.63;;;24.00;44.00;;;;;;4955893;28;45115;-62
2023/06/17 03:18:16;;;;;;;3.67;2.83;;;24.00;44.00;;;;;;4946719;28;45848;-61
2023/06/17 03:20:42;;;;;;;3.50;2.58;;;24.00;44.00;;;;;;4909673;28;46341;-61
2023/06/17 03:23:08;;;;;;;3.08;2.55;;;24.00;44.00;;;;;;4953906;28;45423;-64
2023/06/17 03:25:34;;;;;;;4.20;2.38;;;24.00;44.00;;;;;;4936989;28;45376;-61
2023/06/17 03:28:02;;;;;;;3.33;2.40;;;24.00;44.00;;;;;;4947970;28;45463;-61
2023/06/17 03:30:29;;;;;;;8.13;2.58;;;24.00;43.90;;;;;;4954853;28;45214;-64
2023/06/17 03:32:57;;;;;;;3.95;2.60;;;24.00;43.90;;;;;;4945062;28;45330;-61
2023/06/17 03:35:25;;;;;;;3.20;2.70;;;24.00;43.90;;;;;;4959657;28;45743;-61
2023/06/17 03:37:51;;;;;;;2.85;2.40;;;24.00;43.90;;;;;;4949086;28;45497;-62
2023/06/17 03:40:16;;;;;;;3.78;2.00;;;24.00;43.90;;;;;;4944532;28;46123;-61
2023/06/17 03:42:42;;;;;;;3.75;2.50;;;24.00;43.90;;;;;;4945961;28;45573;-61
2023/06/17 03:45:08;;;;;;;2.60;2.20;;;23.90;43.80;;;;;;4938065;28;46035;-62
2023/06/17 03:47:33;;;;;;;2.65;2.38;;;24.00;43.80;;;;;;4945522;28;46757;-61
2023/06/17 03:49:59;;;;;;;3.55;2.20;;;23.90;43.70;;;;;;4950561;28;45762;-61
2023/06/17 03:52:25;;;;;;;2.75;2.13;;;23.90;43.80;;;;;;4942999;28;44869;-61
2023/06/17 03:54:50;;;;;;;3.30;2.15;;;23.90;43.80;;;;;;4948289;28;45039;-61
2023/06/17 03:57:16;;;;;;;4.28;2.50;;;23.90;43.80;;;;;;4960310;28;46590;-61
2023/06/17 03:59:42;;;;;;;2.85;2.15;;;23.90;43.70;;;;;;4964532;28;45236;-61
2023/06/17 04:02:07;;;;;;;2.65;2.08;;;23.90;43.70;;;;;;4957675;28;45400;-62
2023/06/17 04:04:34;;;;;;;3.25;2.28;;;23.90;43.70;;;;;;4959461;28;45188;-61
2023/06/17 04:07:00;;;;;;;2.65;2.30;;;23.80;43.60;;;;;;4948210;28;45211;-60
2023/06/17 04:09:26;;;;;;;5.80;2.15;;;23.80;43.70;;;;;;4946737;28;45291;-61
2023/06/17 04:11:51;;;;;;;2.90;2.25;;;23.80;43.70;;;;;;4945150;28;45652;-61
2023/06/17 04:14:17;;;;;;;2.60;2.13;;;23.80;43.70;;;;;;4958706;28;45598;-61
2023/06/17 04:16:44;;;;;;;2.20;1.90;;;23.80;43.70;;;;;;4960436;28;45264;-61
2023/06/17 04:19:13;;;;;;;5.05;2.10;;;23.80;43.70;;;;;;4949469;28;45436;-61
2023/06/17 04:21:40;;;;;;;2.28;2.00;;;23.80;43.70;;;;;;4962439;28;45369;-61
2023/06/17 04:24:05;;;;;;;2.50;1.75;;;23.80;43.80;;;;;;4940495;28;45602;-61
2023/06/17 04:26:31;;;;;;;2.78;2.20;;;23.80;43.80;;;;;;4956106;28;45980;-61
2023/06/17 04:28:58;;;;;;;2.92;2.28;;;23.80;43.80;;;;;;4937752;28;45437;-61
2023/06/17 04:31:25;;;;;;;3.35;1.90;;;23.80;43.90;;;;;;4932046;28;44677;-59
2023/06/17 04:33:50;;;;;;;3.58;2.13;;;23.80;44.50;;;;;;4966188;28;45258;-60
2023/06/17 04:36:17;;;;;;;4.85;2.20;;;23.80;43.90;;;;;;4948221;28;46612;-61
2023/06/17 04:38:42;;;;;;;2.88;1.95;;;23.80;43.90;;;;;;4967802;28;45358;-61
2023/06/17 04:41:08;;;;;;;2.15;1.90;;;23.80;44.00;;;;;;4965019;28;45390;-61
2023/06/17 04:43:36;;;;;;;2.40;1.88;;;23.80;44.00;;;;;;4967688;28;45643;-62
2023/06/17 04:46:02;;;;;;;2.78;2.13;;;23.80;44.10;;;;;;4962767;28;45257;-61
2023/06/17 04:48:28;;;;;;;2.63;1.98;;;23.80;44.20;;;;;;4956144;28;45200;-64
2023/06/17 04:50:58;;;;;;;2.50;2.08;;;23.80;44.30;;;;;;4918295;28;44891;-62
2023/06/17 04:53:24;;;;;;;2.78;2.10;;;23.80;44.50;;;;;;4966413;28;45616;-60
2023/06/17 04:55:50;;;;;;;2.25;1.85;;;23.80;44.50;;;;;;4953778;28;45792;-61
2023/06/17 04:58:16;;;;;;;5.03;2.30;;;23.80;44.60;;;;;;4950874;28;45527;-61
2023/06/17 05:00:42;;;;;;;3.45;2.15;;;23.80;44.60;;;;;;4928986;28;46276;-63
2023/06/17 05:03:08;;;;;;;3.60;2.20;;;23.80;44.70;;;;;;4962175;28;46094;-62
2023/06/17 05:05:33;;;;;;;2.67;2.30;;;23.80;44.80;;;;;;4941801;28;45454;-63
2023/06/17 05:07:59;;;;;;;3.63;2.30;;;23.80;44.90;;;;;;4921908;28;45135;-63
2023/06/17 05:10:25;;;;;;;2.45;2.05;;;23.80;45.00;;;;;;4943448;28;45491;-61
2023/06/17 05:12:50;;;;;;;2.88;2.35;;;23.80;45.00;;;;;;4930478;28;45422;-61
2023/06/17 05:15:16;;;;;;;2.95;2.40;;;23.80;45.00;;;;;;4949803;28;45516;-61
2023/06/17 05:17:41;;;;;;;5.55;2.55;;;23.80;45.10;;;;;;4938981;28;45907;-63
2023/06/17 05:20:08;;;;;;;2.92;2.53;;;23.80;45.20;;;;;;4965032;28;45447;-64
2023/06/17 05:22:33;;;;;;;3.85;2.85;;;23.80;45.30;;;;;;4930833;28;45107;-63
2023/06/17 05:25:00;;;;;;;3.78;2.40;;;23.80;45.40;;;;;;4948039;28;46999;-63
2023/06/17 05:27:25;;;;;;;2.60;2.22;;;23.80;45.50;;;;;;4959766;28;45212;-64
2023/06/17 05:29:51;;;;;;;3.22;2.10;;;23.80;45.60;;;;;;4953783;28;45216;-62
2023/06/17 05:32:16;;;;;;;3.50;2.50;;;23.80;45.70;;;;;;4956788;28;45320;-61
2023/06/17 05:34:42;;;;;;;2.50;2.30;;;23.80;45.80;;;;;;4948684;28;46586;-61
2023/06/17 05:37:07;;;;;;;3.97;2.58;;;23.90;45.80;;;;;;4952875;28;45334;-60
2023/06/17 05:39:33;;;;;;;2.50;2.05;;;23.80;45.90;;;;;;4963921;28;45323;-61
2023/06/17 05:41:58;;;;;;;3.95;2.80;;;23.80;45.80;;;;;;4958585;28;45538;-61
2023/06/17 05:44:24;;;;;;;3.38;2.72;;;23.90;46.00;;;;;;4967620;28;45329;-60
2023/06/17 05:46:49;;;;;;;4.38;2.35;;;23.80;46.00;;;;;;4955504;28;45219;-60
2023/06/17 05:49:15;;;;;;;3.17;2.65;;;23.90;46.00;;;;;;4950997;28;45521;-62
2023/06/17 05:51:41;;;;;;;2.92;2.40;;;23.90;46.10;;;;;;4922153;28;45679;-62
2023/06/17 05:54:07;;;;;;;5.00;3.03;;;23.90;46.10;;;;;;4937539;28;45655;-61
2023/06/17 05:56:32;;;;;;;4.60;3.05;;;23.90;46.20;;;;;;4943898;28;45504;-62
2023/06/17 05:58:58;;;;;;;3.90;2.80;;;23.90;46.40;;;;;;4967688;28;45572;-61
2023/06/17 06:01:23;;;;;;;3.45;3.10;;;23.90;46.30;;;;;;4954793;28;45177;-62
2023/06/17 06:03:49;;;;;;;8.23;3.35;;;24.00;46.40;;;;;;4960943;28;45909;-64
2023/06/17 06:06:14;;;;;;;3.70;2.92;;;23.90;46.50;;;;;;4957508;28;44653;-59
2023/06/17 06:08:40;;;;;;;4.32;2.83;;;23.90;46.50;;;;;;4950882;28;45385;-62
2023/06/17 06:11:05;;;;;;;3.58;3.05;;;23.90;46.50;;;;;;4949476;28;45741;-63
2023/06/17 06:13:31;;;;;;;5.85;3.20;;;23.90;46.60;;;;;;4968813;28;45325;-61
2023/06/17 06:15:57;;;;;;;3.35;2.95;;;24.00;46.70;;;;;;4935380;28;45180;-61
2023/06/17 06:18:23;;;;;;;5.32;3.58;;;24.00;46.70;;;;;;4958838;28;45317;-64
2023/06/17 06:20:48;;;;;;;5.07;3.15;;;24.00;46.60;;;;;;4931594;28;44986;-61
2023/06/17 06:23:14;;;;;;;3.17;2.92;;;24.00;46.50;;;;;;4954028;28;47014;-62
2023/06/17 06:25:40;;;;;;;3.65;3.10;;;24.00;46.50;;;;;;4945311;28;45315;-61
2023/06/17 06:28:06;;;;;;;3.67;3.35;;;24.00;46.50;;;;;;4968425;28;45528;-61
2023/06/17 06:30:32;;;;;;;6.07;3.15;;;24.00;46.60;;;;;;4963302;28;45395;-60
2023/06/17 06:32:58;;;;;;;3.20;2.90;;;24.00;46.50;;;;;;4963111;28;46156;-60
2023/06/17 06:35:24;;;;;;;4.03;3.17;;;24.00;46.50;;;;;;4956127;28;45543;-61
2023/06/17 06:37:50;;;;;;;4.68;3.30;;;24.10;46.70;;;;;;4967199;28;45261;-62
2023/06/17 06:40:15;;;;;;;4.70;3.35;;;24.00;46.60;;;;;;4931588;28;45449;-61
2023/06/17 06:42:41;;;;;;;3.55;3.03;;;24.00;46.60;;;;;;4936519;28;45272;-61
2023/06/17 06:45:07;;;;;;;3.10;2.80;;;24.10;46.60;;;;;;4947746;28;45158;-69
2023/06/17 06:47:33;;;;;;;3.83;2.63;;;24.10;46.50;;;;;;4948608;28;44868;-62
2023/06/17 06:49:58;;;;;;;4.30;3.17;;;24.10;46.60;;;;;;4963383;28;45502;-60
2023/06/17 06:52:24;;;;;;;4.82;3.25;;;24.10;46.70;;;;;;4963185;28;46736;-61
2023/06/17 06:54:49;;;;;;;4.78;3.17;;;24.10;46.60;;;;;;4966928;28;45245;-60
2023/06/17 06:57:15;;;;;;;5.22;3.25;;;24.20;46.60;;;;;;4964143;28;45322;-61
2023/06/17 06:59:40;;;;;;;4.43;3.22;;;24.20;46.50;;;;;;4957474;28;45576;-61
2023/06/17 07:02:06;;;;;;;5.25;2.72;;;24.20;46.40;;;;;;4912216;28;45445;-64
2023/06/17 07:04:31;;;;;;;3.30;3.00;;;24.20;46.30;;;;;;4958477;28;45542;-61
2023/06/17 07:06:57;;;;;;;3.50;3.20;;;24.30;46.30;;;;;;4928179;28;45282;-60
2023/06/17 07:09:22;;;;;;;4.03;3.17;;;24.30;46.20;;;;;;4969248;28;45228;-62
2023/06/17 07:11:48;;;;;;;6.30;3.10;;;24.30;46.10;;;;;;4963649;28;45359;-60
2023/06/17 07:14:14;;;;;;;4.10;2.97;;;24.30;46.00;;;;;;4949527;28;45253;-59
2023/06/17 07:16:39;;;;;;;5.05;3.42;;;24.30;46.10;;;;;;4956021;28;45492;-64
2023/06/17 07:19:05;;;;;;;3.28;2.97;;;24.30;46.10;;;;;;4965259;28;44921;-60
2023/06/17 07:21:30;;;;;;;6.00;3.20;;;24.30;46.00;;;;;;4964589;28;45990;-61
2023/06/17 07:23:56;;;;;;;4.63;3.30;;;24.40;46.10;;;;;;4965271;28;45641;-61
2023/06/17 07:26:21;;;;;;;3.90;3.50;;;24.40;46.10;;;;;;4927114;28;45773;-61
2023/06/17 07:28:47;;;;;;;3.97;3.05;;;24.40;46.00;;;;;;4952428;28;45063;-63
2023/06/17 07:31:13;;;;;;;3.97;3.33;;;24.40;46.00;;;;;;4956535;28;45587;-63
2023/06/17 07:33:42;;;;;;;3.90;3.15;;;24.40;46.50;;;;;;4911034;28;45315;-61
2023/06/17 07:36:07;;;;;;;5.25;3.40;;;24.50;45.80;;;;;;4962604;28;45588;-62
2023/06/17 07:38:33;;;;;;;3.65;3.13;;;24.50;45.80;;;;;;4967761;28;45015;-61
2023/06/17 07:41:01;;;;;;;4.07;3.20;;;24.50;45.70;;;;;;4931813;28;45062;-61
2023/06/17 07:43:27;;;;;;;4.82;3.53;;;24.50;45.70;;;;;;4947278;28;44993;-62
2023/06/17 07:45:53;;;;;;;3.88;3.10;;;24.60;45.60;;;;;;4937384;28;44951;-61
2023/06/17 07:48:18;;;;;;;6.00;3.50;;;24.60;45.60;;;;;;4957717;28;45016;-61
2023/06/17 07:50:44;;;;;;;5.68;3.50;;;24.60;45.60;;;;;;4953083;28;45731;-62
2023/06/17 07:53:10;;;;;;;3.88;3.38;;;24.60;45.40;;;;;;4945159;28;45186;-61
2023/06/17 07:55:36;;;;;;;6.55;3.17;;;24.60;45.30;;;;;;4951773;28;46879;-64
2023/06/17 07:58:02;;;;;;;5.07;3.55;;;24.60;45.20;;;;;;4951759;28;46226;-61
2023/06/17 08:00:27;;;;;;;5.05;3.33;;;24.70;45.10;;;;;;4962671;28;45573;-63
2023/06/17 08:02:54;;;;;;;5.03;3.55;;;24.70;45.00;;;;;;4953624;28;45366;-61
2023/06/17 08:05:19;;;;;;;4.53;3.20;;;24.70;45.00;;;;;;4929785;28;44992;-63
2023/06/17 08:07:45;;;;;;;4.57;3.00;;;24.70;44.90;;;;;;4969853;28;45006;-61
2023/06/17 08:10:10;;;;;;;3.50;3.20;;;24.80;44.80;;;;;;4943776;28;46733;-61
2023/06/17 08:12:36;;;;;;;3.70;3.38;;;24.80;44.80;;;;;;4947167;28;45562;-61
2023/06/17 08:15:03;;;;;;;4.18;3.28;;;24.80;44.60;;;;;;4949765;28;48178;-66
2023/06/17 08:17:28;;;;;;;3.17;2.75;;;24.80;44.50;;;;;;4944717;28;45261;-61
2023/06/17 08:19:54;;;;;;;5.22;3.58;;;24.90;44.30;;;;;;4956473;28;45960;-62
2023/06/17 08:22:20;;;;;;;4.38;2.85;;;24.90;44.20;;;;;;4966917;28;45412;-65
2023/06/17 08:24:45;;;;;;;3.95;3.53;;;24.90;44.20;;;;;;4969171;28;45569;-63
2023/06/17 08:27:11;;;;;;;3.40;3.03;;;25.00;43.90;;;;;;4952668;28;47203;-61
2023/06/17 08:29:37;;;;;;;3.05;2.67;;;25.00;43.30;;;;;;4935737;28;45259;-61
2023/06/17 08:32:02;;;;;;;4.80;2.90;;;25.00;43.10;;;;;;4960126;28;45163;-61
2023/06/17 08:34:30;;;;;;;3.60;3.30;;;25.00;42.60;;;;;;4965271;28;45091;-59
2023/06/17 08:36:56;;;;;;;4.85;2.95;;;25.00;42.40;;;;;;4965288;28;45561;-61
2023/06/17 08:39:22;;;;;;;4.68;3.42;;;25.00;42.30;;;;;;4965970;28;45513;-64
2023/06/17 08:41:47;;;;;;;5.88;3.38;;;25.00;42.20;;;;;;4928666;28;45352;-67
2023/06/17 08:44:13;;;;;;;4.53;3.10;;;25.10;41.90;;;;;;4962115;28;45567;-64
2023/06/17 08:46:39;;;;;;;3.30;2.58;;;25.10;41.50;;;;;;4957738;28;45478;-61
2023/06/17 08:49:07;;;;;;;7.10;2.97;;;25.10;41.30;;;;;;4945550;28;45463;-59
2023/06/17 08:51:33;;;;;;;3.20;2.60;;;25.10;40.90;;;;;;4928482;28;45269;-60
2023/06/17 08:53:58;;;;;;;3.50;2.75;;;25.10;40.80;;;;;;4925564;28;45413;-62
2023/06/17 08:56:24;;;;;;;3.97;3.05;;;25.20;40.60;;;;;;4926178;28;45410;-62
2023/06/17 08:58:50;;;;;;;6.18;2.78;;;25.20;40.30;;;;;;4947648;28;45518;-66
2023/06/17 09:01:16;;;;;;;4.20;2.95;;;25.20;40.20;;;;;;4938645;28;45694;-61
2023/06/17 09:03:42;;;;;;;4.25;2.80;;;25.20;40.00;;;;;;4965820;28;45341;-62
2023/06/17 09:06:21;;;;;;;5.88;3.15;;;25.30;39.90;;;;;;4942445;28;45142;-61
2023/06/17 09:08:47;;;;;;;3.20;2.78;;;25.30;39.00;;;;;;4952708;28;46777;-61
2023/06/17 09:11:13;;;;;;;5.28;3.00;;;25.30;39.50;;;;;;4957620;28;45548;-61
2023/06/17 09:13:38;;;;;;;3.53;2.92;;;25.30;39.10;;;;;;4929988;28;45012;-61
2023/06/17 09:16:04;;;;;;;3.53;3.03;;;25.30;39.10;;;;;;4957063;28;46661;-64
2023/06/17 09:18:33;;;;;;;2.90;2.60;;;25.30;38.90;;;;;;4947118;28;46334;-61
2023/06/17 09:21:00;;;;;;;3.13;2.65;;;25.40;38.70;;;;;;4949774;28;45632;-64
2023/06/17 09:23:25;;;;;;;5.05;2.78;;;25.40;38.70;;;;;;4957898;28;44929;-61
2023/06/17 09:26:02;;;;;;;6.18;2.50;;;25.40;38.70;;;;;;4964339;28;45962;-61
2023/06/17 09:28:27;;;;;;;4.07;2.85;;;25.40;38.20;;;;;;4969737;28;47152;-62
2023/06/17 09:30:53;;;;;;;3.67;2.80;;;25.40;38.60;;;;;;4943352;28;45362;-65
2023/06/17 09:33:20;;;;;;;4.03;3.13;;;25.50;38.50;;;;;;4949363;28;45010;-61
2023/06/17 09:35:46;;;;;;;3.25;2.95;;;25.50;38.40;;;;;;4945871;28;45411;-60
2023/06/17 09:38:15;;;;;;;3.20;2.72;;;25.50;38.20;;;;;;4934762;28;46884;-67
2023/06/17 09:40:40;;;;;;;5.32;3.10;;;25.50;38.10;;;;;;4939597;28;44824;-64
2023/06/17 09:43:06;;;;;;;3.63;2.83;;;25.50;38.10;;;;;;4941205;28;45134;-62
2023/06/17 09:45:31;;;;;;;7.70;3.40;;;25.50;37.80;;;;;;4952811;28;45976;-68
2023/06/17 09:47:58;;;;;;;5.32;2.80;;;25.60;37.80;;;;;;4960200;28;46402;-63
2023/06/17 09:50:24;;;;;;;3.72;3.20;;;25.60;37.50;;;;;;4907140;28;45159;-62
2023/06/17 09:52:52;;;;;;;3.63;3.08;;;25.60;37.10;;;;;;4931133;28;45516;-63
2023/06/17 09:55:19;;;;;;;3.10;2.80;;;25.60;36.90;;;;;;4947602;28;45394;-69
2023/06/17 09:57:44;;;;;;;4.68;2.95;;;25.60;37.00;;;;;;4934521;28;48176;-64
2023/06/17 10:00:13;;;;;;;4.15;3.13;;;25.60;36.70;;;;;;4932524;28;45194;-64
2023/06/17 10:02:39;;;;;;;5.22;2.90;;;25.60;36.60;;;;;;4947202;28;45449;-59
2023/06/17 10:05:06;;;;;;;4.03;3.08;;;25.70;36.60;;;;;;4957259;28;45945;-63
2023/06/17 10:07:32;;;;;;;6.32;3.15;;;25.70;36.50;;;;;;4937053;28;45372;-63
2023/06/17 10:09:57;;;;;;;3.45;3.03;;;25.70;36.50;;;;;;4927527;28;45659;-63
2023/06/17 10:12:23;;;;;;;4.40;3.00;;;25.70;36.30;;;;;;4934582;28;45248;-64
2023/06/17 10:14:48;;;;;;;3.10;2.80;;;25.70;36.20;;;;;;4927389;28;44897;-63
2023/06/17 10:17:14;;;;;;;5.97;3.08;;;25.80;36.20;;;;;;4920207;28;46302;-62
2023/06/17 10:19:41;;;;;;;3.55;3.20;;;25.80;36.20;;;;;;4941131;28;45546;-63
2023/06/17 10:22:09;;;;;;;4.72;3.45;;;25.80;36.10;;;;;;4952112;28;45524;-65
2023/06/17 10:24:34;;;;;;;6.10;3.67;;;25.90;35.80;;;;;;4941147;28;45045;-64
2023/06/17 10:27:05;;;;;;;4.95;2.83;;;25.90;35.80;;;;;;4936325;28;45830;-62
2023/06/17 10:29:32;;;;;;;3.78;2.72;;;25.90;35.30;;;;;;4928440;28;45058;-62
2023/06/17 10:32:19;;;;;;;2.92;2.60;;;25.90;35.30;;;;;;4934739;28;45886;-63
2023/06/17 10:35:10;;;;;;;3.97;2.83;;;26.00;35.00;;;;;;4960479;28;45715;-62
2023/06/17 10:37:44;;;;;;;3.47;3.00;;;26.00;34.00;;;;;;4954587;28;45296;-62
2023/06/17 10:40:19;;;;;;;4.47;3.08;;;26.00;33.90;;;;;;4940462;28;44840;-64
2023/06/17 10:43:03;;;;;;;5.32;2.40;;;26.00;33.90;;;;;;4954472;28;45556;-62
2023/06/17 10:45:29;;;;;;;3.53;2.75;;;26.00;34.00;;;;;;4955824;28;45461;-64
2023/06/17 10:48:29;;;;;;;5.10;2.90;;;26.00;34.60;;;;;;4960197;28;45846;-62
2023/06/17 10:50:56;;;;;;;5.45;2.95;;;26.10;33.50;;;;;;4943899;28;45004;-64
2023/06/17 10:53:33;;;;;;;5.55;2.92;;;26.10;34.50;;;;;;4944072;28;45319;-63
2023/06/17 10:56:00;;;;;;;3.65;2.80;;;26.10;34.60;;;;;;4903520;28;45550;-63
2023/06/17 10:58:35;;;;;;;5.13;2.80;;;26.10;34.80;;;;;;4927586;28;46420;-61
2023/06/17 11:01:07;;;;;;;3.58;2.60;;;26.20;34.00;;;;;;4944541;28;44768;-66
2023/06/17 11:03:32;;;;;;;6.78;3.22;;;26.30;34.30;;;;;;4940376;28;45034;-61
2023/06/17 11:05:59;;;;;;;3.20;2.90;;;26.40;34.40;;;;;;4933886;28;44877;-62
2023/06/17 11:08:25;;;;;;;6.43;3.30;;;26.50;34.20;;;;;;4950757;28;45239;-62
2023/06/17 11:10:50;;;;;;;4.38;3.15;;;26.60;34.30;;;;;;4953237;28;45679;-59
2023/06/17 11:13:21;;;;;;;4.38;2.90;;;26.80;33.90;;;;;;4941691;28;45758;-63
2023/06/17 11:15:46;;;;;;;4.75;2.63;;;26.90;33.70;;;;;;4953821;28;45562;-58
2023/06/17 11:18:12;;;;;;;5.53;2.83;;;27.00;33.80;;;;;;4960378;28;45569;-61
2023/06/17 11:20:37;;;;;;;4.13;3.20;;;27.00;33.50;;;;;;4946663;28;44975;-63
2023/06/17 11:23:03;;;;;;;4.00;2.95;;;27.10;33.10;;;;;;4955611;28;45492;-64
2023/06/17 11:25:29;;;;;;;3.42;3.00;;;27.20;33.00;;;;;;4942089;28;45092;-59
2023/06/17 11:27:55;;;;;;;3.45;3.05;;;27.30;32.90;;;;;;4957579;28;45659;-64
2023/06/17 11:30:24;;;;;;;4.32;3.20;;;27.30;32.90;;;;;;4919881;28;45818;-65
2023/06/17 11:32:50;;;;;;;5.10;2.78;;;27.40;32.80;;;;;;4944823;28;45561;-59
2023/06/17 11:35:15;;;;;;;2.60;2.40;;;27.40;32.80;;;;;;4954911;28;44845;-62
2023/06/17 11:37:41;;;;;;;3.08;2.75;;;27.40;32.50;;;;;;4942103;28;45737;-60
2023/06/17 11:40:11;;;;;;;4.20;2.60;;;27.50;32.60;;;;;;4913553;28;45484;-64
2023/06/17 11:42:36;;;;;;;3.17;2.88;;;27.50;32.20;;;;;;4942902;28;46656;-61
2023/06/17 11:45:03;;;;;;;3.38;2.80;;;27.60;32.30;;;;;;4944194;28;45633;-69
2023/06/17 11:47:35;;;;;;;4.55;3.00;;;27.60;32.20;;;;;;4924076;28;46396;-62
2023/06/17 11:50:05;;;;;;;5.15;2.72;;;27.50;31.90;;;;;;4941615;28;45626;-63
2023/06/17 11:52:32;;;;;;;3.45;2.90;;;27.50;32.40;;;;;;4935522;28;45033;-63
2023/06/17 11:54:58;;;;;;;3.45;2.75;;;27.50;32.30;;;;;;4944876;28;45313;-61
2023/06/17 11:57:24;;;;;;;3.10;2.67;;;27.40;32.30;;;;;;4954693;28;45244;-63
2023/06/17 11:59:50;;;;;;;3.75;2.65;;;27.50;32.20;;;;;;4929543;28;45527;-65
2023/06/17 12:02:16;;;;;;;4.47;2.90;;;27.40;32.20;;;;;;4938778;28;45225;-62
2023/06/17 12:04:45;;;;;;;3.75;3.00;;;27.40;32.20;;;;;;4915420;28;45433;-64
2023/06/17 12:07:11;;;;;;;4.20;2.95;;;27.40;32.00;;;;;;4955573;28;45617;-64
2023/06/17 12:09:37;;;;;;;2.95;2.53;;;27.40;32.20;;;;;;4958458;28;45375;-62
2023/06/17 12:12:04;;;;;;;3.22;2.65;;;27.50;32.30;;;;;;4937955;28;45443;-63
2023/06/17 12:14:29;;;;;;;4.97;2.80;;;27.50;32.20;;;;;;4924425;28;45685;-62
2023/06/17 12:16:55;;;;;;;5.00;2.30;;;27.50;32.00;;;;;;4949680;28;45538;-64
2023/06/17 12:19:22;;;;;;;7.15;2.83;;;27.50;31.90;;;;;;4943730;28;45535;-66
2023/06/17 12:21:48;;;;;;;5.13;2.33;;;27.50;31.60;;;;;;4954872;28;45945;-60
2023/06/17 12:24:17;;;;;;;3.13;2.55;;;27.50;31.60;;;;;;4965214;28;45390;-66
2023/06/17 12:26:43;;;;;;;2.85;2.55;;;27.50;31.20;;;;;;4938784;28;46731;-64
2023/06/17 12:29:09;;;;;;;3.60;2.50;;;27.50;31.40;;;;;;4955716;28;45399;-63
2023/06/17 12:31:35;;;;;;;3.67;2.80;;;27.40;31.20;;;;;;4938761;28;45904;-64
2023/06/17 12:34:01;;;;;;;3.20;2.90;;;27.50;30.90;;;;;;4957626;28;45168;-62
2023/06/17 12:36:27;;;;;;;2.80;2.20;;;27.50;30.90;;;;;;4927811;28;47183;-63
2023/06/17 12:38:53;;;;;;;6.70;2.63;;;27.50;30.70;;;;;;4960605;28;45011;-59
2023/06/17 12:41:19;;;;;;;3.42;2.70;;;27.50;30.60;;;;;;4941797;28;45041;-62
2023/06/17 12:43:45;;;;;;;3.00;2.60;;;27.60;30.60;;;;;;4951437;28;45706;-60
2023/06/17 12:46:11;;;;;;;3.00;2.70;;;27.50;30.50;;;;;;4942962;28;45014;-66
2023/06/17 12:48:36;;;;;;;4.18;2.70;;;27.50;30.30;;;;;;4946377;28;44956;-60
2023/06/17 12:51:05;;;;;;;4.22;2.78;;;27.60;30.40;;;;;;4957280;28;45537;-61
2023/06/17 12:53:30;;;;;;;3.53;2.70;;;27.60;30.30;;;;;;4940973;28;45647;-62
2023/06/17 12:55:56;;;;;;;4.13;2.58;;;27.60;30.20;;;;;;4927692;28;47102;-61
2023/06/17 12:58:24;;;;;;;5.53;3.20;;;27.60;30.10;;;;;;4945157;28;45075;-63
2023/06/17 13:00:49;;;;;;;5.60;2.85;;;27.60;30.10;;;;;;4945987;28;44931;-66
2023/06/17 13:03:15;;;;;;;3.45;2.78;;;27.60;30.00;;;;;;4965620;28;45228;-62
2023/06/17 13:05:40;;;;;;;4.70;2.65;;;27.60;29.80;;;;;;4944671;28;46407;-63
2023/06/17 13:08:06;;;;;;;5.50;2.50;;;27.70;29.80;;;;;;4921649;28;45286;-65
2023/06/17 13:10:31;;;;;;;3.00;2.70;;;27.70;29.90;;;;;;4915564;28;44897;-64
2023/06/17 13:12:57;;;;;;;4.80;2.85;;;27.70;29.90;;;;;;4952988;28;46241;-61
2023/06/17 13:15:23;;;;;;;5.70;2.65;;;27.70;29.80;;;;;;4939209;28;46615;-64
2023/06/17 13:17:49;;;;;;;4.50;2.80;;;27.70;29.70;;;;;;4948653;28;46581;-61
2023/06/17 13:20:15;;;;;;;3.30;3.00;;;27.70;29.90;;;;;;4909262;28;45670;-67
2023/06/17 13:22:41;;;;;;;2.53;2.33;;;27.70;29.90;;;;;;4942461;28;46355;-64
2023/06/17 13:25:07;;;;;;;3.10;2.80;;;27.80;30.00;;;;;;4946469;28;46031;-66
2023/06/17 13:27:33;;;;;;;2.72;2.47;;;27.80;30.00;;;;;;4960496;28;45484;-61
2023/06/17 13:29:59;;;;;;;3.35;2.78;;;27.80;30.00;;;;;;4942072;28;45243;-66
2023/06/17 13:32:25;;;;;;;4.00;2.72;;;27.80;30.00;;;;;;4919055;28;45965;-63
2023/06/17 13:34:51;;;;;;;3.05;2.75;;;27.80;29.90;;;;;;4934848;28;47793;-64
2023/06/17 13:37:17;;;;;;;3.83;3.03;;;27.80;30.00;;;;;;4948731;28;45324;-64
2023/06/17 13:39:43;;;;;;;2.63;2.33;;;27.80;29.90;;;;;;4947608;28;45566;-64
2023/06/17 13:42:09;;;;;;;2.92;2.63;;;27.80;29.90;;;;;;4934983;28;45476;-67
2023/06/17 13:44:35;;;;;;;3.38;2.33;;;27.80;29.90;;;;;;4966928;28;45432;-64
2023/06/17 13:47:01;;;;;;;3.63;2.42;;;27.80;30.00;;;;;;4954709;28;45696;-63
2023/06/17 13:49:26;;;;;;;3.50;2.72;;;27.70;30.10;;;;;;4967148;28;45124;-64
2023/06/17 13:51:52;;;;;;;3.58;2.83;;;27.70;30.00;;;;;;4946347;28;44748;-63
2023/06/17 13:54:20;;;;;;;3.38;2.90;;;27.70;30.60;;;;;;4967336;28;45454;-61
2023/06/17 13:56:48;;;;;;;4.88;2.95;;;27.80;30.00;;;;;;4933689;28;45713;-63
2023/06/17 13:59:15;;;;;;;5.25;3.00;;;27.80;29.90;;;;;;4946656;28;45529;-66
2023/06/17 14:01:40;;;;;;;3.47;2.67;;;27.80;29.90;;;;;;4952625;28;45673;-68
2023/06/17 14:04:06;;;;;;;3.03;2.65;;;27.90;29.90;;;;;;4969190;28;45654;-64
2023/06/17 14:06:31;;;;;;;3.15;2.67;;;27.90;29.80;;;;;;4955867;28;45258;-64
2023/06/17 14:08:57;;;;;;;3.63;3.05;;;27.90;29.80;;;;;;4966415;28;45472;-64
2023/06/17 14:11:23;;;;;;;3.50;2.55;;;27.90;29.80;;;;;;4962350;28;45150;-61
2023/06/17 14:13:49;;;;;;;3.65;2.80;;;27.90;29.80;;;;;;4956159;28;45562;-65
2023/06/17 14:16:15;;;;;;;4.72;3.40;;;27.90;29.70;;;;;;4942204;28;45856;-63
2023/06/17 14:18:40;;;;;;;2.83;2.60;;;28.00;29.70;;;;;;4947662;28;44949;-63
2023/06/17 14:21:06;;;;;;;3.53;3.00;;;28.00;29.60;;;;;;4948120;28;45564;-64
2023/06/17 14:23:31;;;;;;;4.28;2.97;;;27.90;29.50;;;;;;4951109;28;45600;-63
2023/06/17 14:25:57;;;;;;;3.42;2.83;;;28.00;29.30;;;;;;4951861;28;45191;-63
2023/06/17 14:28:22;;;;;;;4.70;2.63;;;28.00;29.30;;;;;;4964450;28;45250;-67
2023/06/17 14:30:49;;;;;;;4.45;3.20;;;28.00;29.20;;;;;;4943882;28;45411;-66
2023/06/17 14:33:14;;;;;;;4.15;2.83;;;28.00;29.10;;;;;;4967223;28;46918;-62
2023/06/17 14:35:40;;;;;;;3.20;2.90;;;28.00;29.20;;;;;;4946070;28;45230;-62
2023/06/17 14:38:08;;;;;;;3.53;2.95;;;28.00;29.10;;;;;;4934354;28;45205;-65
2023/06/17 14:40:34;;;;;;;3.25;2.88;;;28.10;29.10;;;;;;4962921;28;45164;-64
2023/06/17 14:43:00;;;;;;;3.58;2.92;;;28.10;29.00;;;;;;4955264;28;45156;-65
2023/06/17 14:45:26;;;;;;;3.72;2.63;;;28.10;28.90;;;;;;4944883;28;45256;-62
2023/06/17 14:47:52;;;;;;;2.72;2.25;;;28.00;28.90;;;;;;4950766;28;45359;-62
2023/06/17 14:50:18;;;;;;;5.45;2.95;;;28.10;28.90;;;;;;4951070;28;45508;-64
2023/06/17 14:52:47;;;;;;;4.97;2.67;;;28.00;28.80;;;;;;4957404;28;45770;-65
2023/06/17 14:55:13;;;;;;;3.00;2.67;;;28.10;28.90;;;;;;4949121;28;45521;-71
2023/06/17 14:57:39;;;;;;;4.75;2.65;;;28.10;28.80;;;;;;4953541;28;45478;-63
2023/06/17 15:00:07;;;;;;;3.47;3.08;;;28.10;28.70;;;;;;4956563;28;45496;-67
2023/06/17 15:02:54;;;;;;;6.95;2.53;;;28.10;28.80;;;;;;4944323;28;47230;-65
2023/06/17 15:05:20;;;;;;;3.00;2.60;;;28.10;28.00;;;;;;4962024;28;45261;-65
2023/06/17 15:07:47;;;;;;;4.57;3.22;;;28.10;28.80;;;;;;4952447;28;45266;-64
2023/06/17 15:10:12;;;;;;;3.70;3.00;;;28.10;28.70;;;;;;4935241;28;46690;-73
2023/06/17 15:12:41;;;;;;;6.28;2.60;;;28.20;28.70;;;;;;4946443;28;45173;-64
2023/06/17 15:15:09;;;;;;;3.17;2.88;;;28.20;28.60;;;;;;4942229;28;46100;-68
2023/06/17 15:17:34;;;;;;;3.30;2.55;;;28.20;28.60;;;;;;4933815;28;45565;-64
2023/06/17 15:20:00;;;;;;;3.63;3.30;;;28.20;28.50;;;;;;4969433;28;45513;-63
2023/06/17 15:22:25;;;;;;;4.32;3.42;;;28.20;28.50;;;;;;4963633;28;45217;-65
2023/06/17 15:24:52;;;;;;;3.50;2.80;;;28.10;28.40;;;;;;4960181;28;45385;-63
2023/06/17 15:27:18;;;;;;;3.85;2.90;;;28.20;28.30;;;;;;4944833;28;45296;-67
2023/06/17 15:29:43;;;;;;;5.47;3.13;;;28.20;28.30;;;;;;4971623;28;45263;-67
2023/06/17 15:32:09;;;;;;;3.08;2.78;;;28.20;28.30;;;;;;4926334;28;47207;-64
2023/06/17 15:34:34;;;;;;;3.80;3.00;;;28.20;28.20;;;;;;4960315;28;45493;-65
2023/06/17 15:37:00;;;;;;;3.25;2.55;;;28.20;28.20;;;;;;4962812;28;45291;-64
2023/06/17 15:39:27;;;;;;;6.03;3.20;;;28.30;28.20;;;;;;4957341;28;45176;-65
2023/06/17 15:41:53;;;;;;;6.78;2.83;;;28.30;28.20;;;;;;4933084;28;45444;-65
2023/06/17 15:44:19;;;;;;;5.25;2.90;;;28.30;28.20;;;;;;4962632;28;45512;-61